Portada
METAR-TAF:

METAR-TAF

Aeroports :

Zamperini Field

Torrance, Califòrnia, Estats Units d'Amèrica

latitud: 33-48N, longitud: 118-20W, altitud: 31 m

Observació

L'informe es va fer fa 1 hora i 4 minuts, a les 15:48 UTC
Vent 4 kt del Nord-Oest
Temperatura 16°C
Humitat 77%
Pressió 1018 hPa
Visibilitat: 11.3 km
Cel cobert a una alçada de 1200 ft

METAR: KTOA 271548Z 32004KT 7SM OVC012 16/12 A3006

Hora: 09:52 (16:52 UTC)


TAF: manca

Observacions i pronòstics meteorològics de més de 4000 aeroports (METAR i TAF).

Les estacions disponibles són els punts grocs i vermells al mapa.

Posi el ratolí al punt desitjat per veure el nom de l'estació.

Feu clic per veure les observacions i els pronòstics meteorològics.

Per canviar el mapa: feu clic els botons verds amb una creu de color negre per apropar; al botó verd amb un guió per allunyar la imatge; o en les fletxes verdes per a mapes adjacents.


METAR-TAF: